Time;durP1;ratioP1;P1;durP2;ratioP2;P2;SDS_P1;SDS_P2;PMS_P1;PMS_P2;Temp;Humidity;BMP_temperature;BMP_pressure;BME280_temperature;BME280_humidity;BME280_pressure;Samples;Min_cycle;Max_cycle;Signal;HPM_P1;HPM_P2
2024/01/18 00:02:22;;;;;;;25.77;16.95;;;;;;;1.49;100.00;98553.47;5027663;28;20053;-65
2024/01/18 00:05:15;;;;;;;27.83;17.23;;;;;;;1.58;100.00;98559.75;5029783;28;20061;-66
2024/01/18 00:07:45;;;;;;;27.85;18.23;;;;;;;1.40;100.00;98560.72;5031716;28;20041;-65
2024/01/18 00:10:30;;;;;;;24.42;16.77;;;;;;;1.55;100.00;98559.56;5024005;28;20056;-65
2024/01/18 00:12:59;;;;;;;24.23;16.15;;;;;;;1.51;100.00;98572.94;5010793;28;20054;-65
2024/01/18 00:15:26;;;;;;;23.75;15.70;;;;;;;1.50;100.00;98571.31;5011279;28;20057;-65
2024/01/18 00:17:54;;;;;;;25.98;17.05;;;;;;;1.61;100.00;98580.03;5028555;28;20060;-64
2024/01/18 00:20:24;;;;;;;24.10;16.55;;;;;;;1.69;100.00;98573.91;5028015;28;20046;-64
2024/01/18 00:22:51;;;;;;;25.33;17.48;;;;;;;1.69;100.00;98571.19;5014902;28;20057;-65
2024/01/18 00:25:24;;;;;;;28.08;17.75;;;;;;;1.61;100.00;98570.00;5010645;28;20058;-66
2024/01/18 00:28:08;;;;;;;28.20;17.93;;;;;;;1.67;100.00;98563.34;5010452;28;20488;-64
2024/01/18 00:30:35;;;;;;;26.10;17.25;;;;;;;1.67;100.00;98563.34;5008482;28;20300;-65
2024/01/18 00:33:03;;;;;;;23.83;16.05;;;;;;;1.65;100.00;98571.00;5010030;28;20053;-65
2024/01/18 00:35:30;;;;;;;25.30;17.27;;;;;;;1.61;100.00;98572.72;5012207;28;20053;-64
2024/01/18 00:37:58;;;;;;;25.02;16.67;;;;;;;1.47;100.00;98576.56;5030235;28;20068;-65
2024/01/18 00:40:25;;;;;;;25.95;17.33;;;;;;;1.57;100.00;98566.28;5030496;28;20057;-64
2024/01/18 00:43:00;;;;;;;23.83;16.42;;;;;;;1.58;100.00;98553.53;5019429;28;20067;-61
2024/01/18 00:45:52;;;;;;;24.90;15.98;;;;;;;1.59;100.00;98550.50;4995053;28;20484;-65
2024/01/18 00:48:20;;;;;;;24.73;16.35;;;;;;;1.56;100.00;98561.97;5021217;28;20046;-65
2024/01/18 00:51:27;;;;;;;25.77;16.15;;;;;;;1.62;100.00;98568.88;5025238;28;20073;-65
2024/01/18 00:53:55;;;;;;;23.60;15.82;;;;;;;1.68;100.00;98570.38;5009989;28;20093;-65
2024/01/18 00:56:22;;;;;;;26.83;15.00;;;;;;;1.74;100.00;98563.72;5014260;28;20049;-65
2024/01/18 00:58:49;;;;;;;23.33;15.60;;;;;;;1.81;100.00;98568.72;5032369;28;20050;-65
2024/01/18 01:01:17;;;;;;;24.67;14.75;;;;;;;1.47;100.00;98574.66;5024732;28;20057;-65
2024/01/18 01:03:45;;;;;;;20.63;13.13;;;;;;;1.40;100.00;98565.34;5012007;28;20504;-63
2024/01/18 01:06:15;;;;;;;20.50;13.20;;;;;;;1.35;100.00;98551.91;5009416;28;20058;-63
2024/01/18 01:08:42;;;;;;;;;;;;;;;1.49;100.00;98556.19;5016952;28;20080;-64
2024/01/18 01:11:10;;;;;;;22.08;13.85;;;;;;;1.48;100.00;98565.44;5027660;28;19924;-65
2024/01/18 01:13:38;;;;;;;19.90;13.52;;;;;;;1.31;100.00;98557.13;5027846;28;20060;-64
2024/01/18 01:16:05;;;;;;;21.52;14.13;;;;;;;1.54;100.00;98549.81;5026966;28;20049;-64
2024/01/18 01:18:32;;;;;;;19.13;13.35;;;;;;;1.41;100.00;98548.78;5028158;28;20060;-66
2024/01/18 01:21:00;;;;;;;21.45;14.10;;;;;;;1.46;100.00;98545.94;5019903;28;20057;-64
2024/01/18 01:23:38;;;;;;;21.85;14.35;;;;;;;1.45;100.00;98544.31;5014819;28;20054;-65
2024/01/18 01:26:05;;;;;;;23.00;15.68;;;;;;;1.32;100.00;98566.88;5009905;28;20081;-65
2024/01/18 01:28:33;;;;;;;24.67;15.75;;;;;;;1.28;100.00;98554.22;5010692;28;20050;-65
2024/01/18 01:31:01;;;;;;;21.45;15.00;;;;;;;1.23;100.00;98554.34;5008889;28;20541;-66
2024/01/18 01:33:28;;;;;;;19.98;14.20;;;;;;;1.29;100.00;98553.91;5020109;28;20053;-65
2024/01/18 01:35:56;;;;;;;24.85;15.48;;;;;;;1.45;100.00;98546.25;5031013;28;20053;-65
2024/01/18 01:38:25;;;;;;;21.98;14.88;;;;;;;1.08;100.00;98558.97;5030274;28;20052;-65
2024/01/18 01:40:53;;;;;;;26.13;15.90;;;;;;;1.28;100.00;98560.47;5029098;28;20049;-65
2024/01/18 01:43:28;;;;;;;22.00;14.75;;;;;;;1.27;100.00;98564.28;5029063;28;20061;-65
2024/01/18 01:45:56;;;;;;;20.38;14.38;;;;;;;1.31;100.00;98567.97;5011949;28;20064;-64
2024/01/18 01:48:24;;;;;;;22.17;14.95;;;;;;;1.43;100.00;98581.03;5033037;28;20522;-63
2024/01/18 01:50:51;;;;;;;21.60;14.30;;;;;;;1.15;100.00;98580.28;5048734;28;20060;-64
2024/01/18 01:53:19;;;;;;;23.92;15.57;;;;;;;1.17;100.00;98578.84;5049025;28;20049;-64
2024/01/18 01:55:47;;;;;;;24.25;16.08;;;;;;;1.24;100.00;98578.44;5048648;28;20052;-64
2024/01/18 01:58:43;;;;;;;25.02;16.50;;;;;;;1.33;100.00;98586.66;5047554;28;20054;-64
2024/01/18 02:01:23;;;;;;;24.65;17.02;;;;;;;1.35;100.00;98579.81;5049543;28;20049;-65
2024/01/18 02:03:50;;;;;;;23.33;16.08;;;;;;;1.12;100.00;98597.94;5048457;28;20061;-64
2024/01/18 02:06:18;;;;;;;22.40;15.45;;;;;;;1.13;100.00;98585.97;5048086;28;20056;-64
2024/01/18 02:08:46;;;;;;;23.52;16.05;;;;;;;1.12;100.00;98586.28;5048073;28;20052;-65
2024/01/18 02:11:14;;;;;;;24.48;15.93;;;;;;;0.85;100.00;98579.00;5032044;28;20057;-64
2024/01/18 02:13:41;;;;;;;27.75;18.77;;;;;;;1.04;100.00;98587.81;5027863;28;20046;-65
2024/01/18 02:16:09;;;;;;;29.05;18.98;;;;;;;1.21;100.00;98587.19;5026759;28;20057;-65
2024/01/18 02:18:37;;;;;;;30.60;19.00;;;;;;;1.21;100.00;98584.47;5028324;28;20737;-65
2024/01/18 02:21:07;;;;;;;28.25;18.77;;;;;;;1.17;100.00;98598.94;5027113;28;20152;-65
2024/01/18 02:23:37;;;;;;;28.75;18.13;;;;;;;1.10;100.00;98594.72;5026511;28;20049;-64
2024/01/18 02:26:29;;;;;;;;;;;;;;;1.26;100.00;98599.81;5028259;28;20053;-64
2024/01/18 02:28:57;;;;;;;33.55;19.10;;;;;;;1.16;100.00;98614.41;5027389;28;19932;-65
2024/01/18 02:31:24;;;;;;;28.17;17.80;;;;;;;1.10;100.00;98621.84;5028698;28;20064;-64
2024/01/18 02:33:52;;;;;;;29.27;18.23;;;;;;;1.10;100.00;98624.56;5028162;28;20705;-65
2024/01/18 02:36:20;;;;;;;30.48;19.50;;;;;;;1.13;100.00;98623.16;5031588;28;20057;-63
2024/01/18 02:38:48;;;;;;;28.17;17.33;;;;;;;1.22;100.00;98620.53;5047337;28;20056;-64
2024/01/18 02:41:15;;;;;;;27.42;18.15;;;;;;;1.09;100.00;98609.41;5031577;28;20057;-64
2024/01/18 02:43:43;;;;;;;30.13;18.73;;;;;;;1.11;100.00;98603.69;5029292;28;20074;-64
2024/01/18 02:46:15;;;;;;;27.60;18.17;;;;;;;1.27;100.00;98609.56;5027096;28;20060;-64
2024/01/18 02:48:43;;;;;;;26.25;17.10;;;;;;;0.83;100.00;98610.22;5032837;28;20056;-64
2024/01/18 02:51:10;;;;;;;25.25;17.13;;;;;;;0.81;100.00;98615.94;5047019;28;20757;-65
2024/01/18 02:53:37;;;;;;;25.42;17.02;;;;;;;1.06;100.00;98617.34;5047648;28;20056;-65
2024/01/18 02:56:05;;;;;;;25.17;16.40;;;;;;;1.05;100.00;98624.66;5047163;28;20063;-65
2024/01/18 02:58:32;;;;;;;25.38;16.80;;;;;;;0.75;100.00;98613.63;5046663;28;20065;-64
2024/01/18 03:01:00;;;;;;;25.35;16.67;;;;;;;0.90;100.00;98616.84;5045239;28;20068;-64
2024/01/18 03:03:27;;;;;;;25.40;16.80;;;;;;;0.99;100.00;98627.78;5048599;28;20049;-65
2024/01/18 03:05:54;;;;;;;25.48;16.70;;;;;;;1.07;100.00;98636.00;5045978;28;20057;-67
2024/01/18 03:08:22;;;;;;;22.38;14.55;;;;;;;0.78;100.00;98630.09;5047071;28;20061;-64
2024/01/18 03:10:49;;;;;;;22.35;14.32;;;;;;;0.47;100.00;98639.09;5035788;28;20056;-64
2024/01/18 03:13:16;;;;;;;25.85;15.60;;;;;;;0.73;100.00;98646.41;5027016;28;20065;-65
2024/01/18 03:15:43;;;;;;;21.98;14.32;;;;;;;0.60;100.00;98649.13;5027248;28;20064;-65
2024/01/18 03:18:11;;;;;;;22.38;13.48;;;;;;;0.56;100.00;98648.91;5025151;28;20060;-64
2024/01/18 03:20:38;;;;;;;21.23;13.70;;;;;;;0.49;100.00;98661.25;5027580;28;20058;-65
2024/01/18 03:23:06;;;;;;;21.75;13.80;;;;;;;0.58;100.00;98659.44;5027062;28;20064;-64
2024/01/18 03:25:33;;;;;;;21.48;13.18;;;;;;;0.37;100.00;98672.53;5027494;28;20057;-65
2024/01/18 03:28:00;;;;;;;22.00;14.15;;;;;;;0.47;100.00;98682.41;5028207;28;20065;-65
2024/01/18 03:30:27;;;;;;;22.40;13.32;;;;;;;0.68;100.00;98672.81;5027002;28;20053;-65
2024/01/18 03:32:55;;;;;;;22.38;14.18;;;;;;;0.81;100.00;98670.13;5025093;28;20061;-64
2024/01/18 03:35:28;;;;;;;20.00;12.68;;;;;;;1.03;100.00;98675.66;5025831;28;20057;-63
2024/01/18 03:37:56;;;;;;;21.55;12.68;;;;;;;0.53;100.00;98676.59;5023945;28;20057;-64
2024/01/18 03:40:23;;;;;;;20.92;12.88;;;;;;;0.52;100.00;98693.97;5031137;28;20425;-66
2024/01/18 03:42:50;;;;;;;20.10;12.55;;;;;;;0.68;100.00;98705.34;5029508;28;20058;-65
2024/01/18 03:45:30;;;;;;;18.77;12.27;;;;;;;0.88;100.00;98699.53;5031573;28;20057;-66
2024/01/18 03:47:57;;;;;;;19.52;12.85;;;;;;;0.61;100.00;98705.69;5030369;28;20057;-64
2024/01/18 03:50:25;;;;;;;17.63;12.35;;;;;;;0.80;100.00;98702.94;5031036;28;20053;-64
2024/01/18 03:52:52;;;;;;;18.00;11.93;;;;;;;0.74;100.00;98714.97;5032279;28;20053;-64
2024/01/18 03:55:19;;;;;;;19.65;11.80;;;;;;;0.67;100.00;98714.53;5030497;28;20049;-65
2024/01/18 03:57:46;;;;;;;16.98;11.40;;;;;;;0.61;100.00;98710.34;5030236;28;20053;-65
2024/01/18 04:00:14;;;;;;;18.35;11.93;;;;;;;0.62;100.00;98723.56;5028516;28;20056;-65
2024/01/18 04:02:43;;;;;;;18.30;12.55;;;;;;;0.62;100.00;98723.56;5030906;28;20053;-64
2024/01/18 04:05:10;;;;;;;18.27;11.75;;;;;;;0.77;100.00;98720.59;5026720;28;20068;-64
2024/01/18 04:07:38;;;;;;;18.38;12.75;;;;;;;0.92;100.00;98733.84;5030315;28;20064;-65
2024/01/18 04:10:07;;;;;;;17.85;12.52;;;;;;;0.82;100.00;98733.25;5029806;28;20045;-65
2024/01/18 04:12:35;;;;;;;19.30;12.75;;;;;;;0.78;100.00;98743.91;5028337;28;20647;-65
2024/01/18 04:15:03;;;;;;;19.27;13.23;;;;;;;0.96;100.00;98744.91;5028271;28;20049;-65
2024/01/18 04:17:31;;;;;;;18.40;12.30;;;;;;;0.92;100.00;98755.53;5029943;28;20061;-65
2024/01/18 04:19:58;;;;;;;19.48;11.95;;;;;;;0.60;100.00;98755.56;5029569;28;20101;-64
2024/01/18 04:22:25;;;;;;;17.88;12.30;;;;;;;0.69;100.00;98758.41;5029615;28;20053;-65
2024/01/18 04:24:53;;;;;;;21.00;12.25;;;;;;;0.79;100.00;98767.16;5028917;28;20060;-65
2024/01/18 04:27:21;;;;;;;16.52;10.02;;;;;;;0.56;100.00;98791.69;5028195;28;20102;-64
2024/01/18 04:29:48;;;;;;;15.43;10.88;;;;;;;0.37;100.00;98782.75;5030033;28;20419;-64
2024/01/18 04:32:15;;;;;;;16.00;10.60;;;;;;;0.39;100.00;98783.25;5030239;28;20053;-64
2024/01/18 04:34:42;;;;;;;16.17;11.48;;;;;;;0.67;100.00;98791.22;5030759;28;20060;-65
2024/01/18 04:37:11;;;;;;;18.33;12.18;;;;;;;0.53;100.00;98787.66;5033079;28;20060;-64
2024/01/18 04:39:38;;;;;;;20.02;12.65;;;;;;;0.43;100.00;98816.78;5028036;28;20061;-65
2024/01/18 04:42:08;;;;;;;21.60;12.60;;;;;;;0.30;100.00;98812.13;5030389;28;20567;-64
2024/01/18 04:44:35;;;;;;;19.83;13.50;;;;;;;0.26;100.00;98827.34;5029944;28;20104;-64
2024/01/18 04:47:03;;;;;;;21.05;13.80;;;;;;;0.24;100.00;98833.03;5028935;28;20068;-64
2024/01/18 04:49:30;;;;;;;21.88;14.02;;;;;;;0.26;100.00;98838.16;5041576;28;20738;-65
2024/01/18 04:51:57;;;;;;;23.40;14.48;;;;;;;0.19;100.00;98853.97;5049508;28;20509;-66
2024/01/18 04:54:24;;;;;;;22.95;14.18;;;;;;;0.30;100.00;98860.84;5049442;28;20788;-65
2024/01/18 04:56:52;;;;;;;22.20;14.15;;;;;;;-0.02;100.00;98856.91;5048225;28;20052;-64
2024/01/18 04:59:19;;;;;;;24.95;15.23;;;;;;;0.21;100.00;98860.66;5049686;28;20080;-64
2024/01/18 05:01:47;;;;;;;23.60;14.70;;;;;;;0.18;100.00;98873.97;5049181;28;20057;-65
2024/01/18 05:04:14;;;;;;;22.67;13.00;;;;;;;0.22;100.00;98891.25;5047263;28;20057;-65
2024/01/18 05:06:43;;;;;;;21.00;13.30;;;;;;;-0.09;100.00;98907.09;5048870;28;20053;-64
2024/01/18 05:09:11;;;;;;;21.27;13.95;;;;;;;0.03;100.00;98909.38;5049179;28;20428;-64
2024/01/18 05:11:38;;;;;;;24.05;13.57;;;;;;;-0.03;100.00;98917.56;5030614;28;20054;-64
2024/01/18 05:14:05;;;;;;;20.63;13.55;;;;;;;-0.02;100.00;98910.25;5028439;28;20057;-65
2024/01/18 05:16:39;;;;;;;23.02;14.30;;;;;;;-0.12;100.00;98921.97;5027346;28;20045;-66
2024/01/18 05:19:08;;;;;;;25.90;14.70;;;;;;;-0.07;100.00;98919.22;5028395;28;20786;-65
2024/01/18 05:21:35;;;;;;;27.92;15.82;;;;;;;-0.02;100.00;98940.00;5026921;28;20599;-65
2024/01/18 05:24:03;;;;;;;27.40;16.48;;;;;;;-0.01;100.00;98931.59;5030013;28;20053;-65
2024/01/18 05:26:31;;;;;;;24.77;15.82;;;;;;;0.02;100.00;98934.84;5028922;28;20053;-65
2024/01/18 05:28:58;;;;;;;30.25;16.92;;;;;;;0.08;100.00;98947.19;5028934;28;20053;-64
2024/01/18 05:31:25;;;;;;;26.88;16.75;;;;;;;0.10;100.00;98958.53;5021946;28;20053;-65
2024/01/18 05:33:56;;;;;;;31.10;17.85;;;;;;;0.24;100.00;98954.88;5009832;28;20057;-65
2024/01/18 05:36:23;;;;;;;30.35;18.33;;;;;;;0.43;100.00;98965.72;5029152;28;20071;-67
2024/01/18 05:38:50;;;;;;;31.02;18.38;;;;;;;0.37;100.00;98954.16;5022709;28;20604;-64
2024/01/18 05:41:18;;;;;;;33.60;19.33;;;;;;;0.35;100.00;98982.63;5028481;28;20053;-64
2024/01/18 05:43:45;;;;;;;33.83;20.02;;;;;;;0.25;100.00;98978.13;5027008;28;20053;-65
2024/01/18 05:46:12;;;;;;;35.58;20.27;;;;;;;0.28;100.00;98993.78;5030350;28;20064;-67
2024/01/18 05:48:40;;;;;;;36.40;21.13;;;;;;;0.36;100.00;99000.47;5015348;28;20046;-65
2024/01/18 05:51:07;;;;;;;35.25;21.52;;;;;;;-0.01;100.00;98995.75;5027940;28;20058;-64
2024/01/18 05:53:34;;;;;;;38.88;22.95;;;;;;;0.19;100.00;99011.78;5028471;28;20056;-67
2024/01/18 05:56:02;;;;;;;38.33;21.90;;;;;;;0.32;100.00;99010.25;5028660;28;20168;-64
2024/01/18 05:58:31;;;;;;;37.55;22.33;;;;;;;0.09;100.00;99024.63;5028209;28;20609;-65
2024/01/18 06:01:02;;;;;;;41.03;24.15;;;;;;;0.24;100.00;99036.09;5027249;28;20044;-64
2024/01/18 06:03:29;;;;;;;37.00;23.52;;;;;;;0.13;100.00;99039.16;5028481;28;20058;-64
2024/01/18 06:05:58;;;;;;;48.03;24.25;;;;;;;0.32;100.00;99038.16;5027928;28;20088;-64
2024/01/18 06:08:26;;;;;;;37.58;22.23;;;;;;;0.17;100.00;99042.94;5028157;28;20061;-65
2024/01/18 06:10:54;;;;;;;39.80;23.58;;;;;;;0.29;100.00;99051.47;5028220;28;20049;-65
2024/01/18 06:13:23;;;;;;;39.22;24.35;;;;;;;0.42;100.00;99051.56;5025846;28;20507;-65
2024/01/18 06:15:51;;;;;;;43.28;24.45;;;;;;;0.53;100.00;99047.66;5026732;28;20057;-66
2024/01/18 06:18:18;;;;;;;39.03;24.00;;;;;;;0.50;100.00;99056.38;5027701;28;20076;-65
2024/01/18 06:20:46;;;;;;;40.63;22.85;;;;;;;0.76;100.00;99054.97;5041791;28;20072;-66
2024/01/18 06:23:13;;;;;;;37.35;21.67;;;;;;;0.67;100.00;99075.69;5026041;28;20042;-66
2024/01/18 06:25:41;;;;;;;37.33;21.48;;;;;;;0.84;100.00;99088.72;5027092;28;20053;-65
2024/01/18 06:28:10;;;;;;;37.58;21.70;;;;;;;0.79;100.00;99095.03;5027265;28;20068;-64
2024/01/18 06:30:43;;;;;;;36.88;22.05;;;;;;;0.73;100.00;99109.72;5027724;28;20085;-65
2024/01/18 06:33:11;;;;;;;36.53;22.50;;;;;;;0.58;100.00;99122.63;5027465;28;20053;-65
2024/01/18 06:35:39;;;;;;;38.88;23.10;;;;;;;0.68;100.00;99115.19;5011366;28;20050;-65
2024/01/18 06:38:06;;;;;;;40.38;23.55;;;;;;;0.77;100.00;99124.31;5045415;28;20055;-64
2024/01/18 06:40:34;;;;;;;39.80;22.35;;;;;;;0.79;100.00;99143.00;5027340;28;20487;-65
2024/01/18 06:43:01;;;;;;;36.28;21.27;;;;;;;0.81;100.00;99148.94;5026681;28;20064;-64
2024/01/18 06:45:29;;;;;;;37.10;21.90;;;;;;;0.89;100.00;99167.31;5027706;28;20053;-64
2024/01/18 06:47:56;;;;;;;36.40;20.25;;;;;;;0.54;100.00;99162.25;5027369;28;20053;-65
2024/01/18 06:50:23;;;;;;;37.40;20.95;;;;;;;0.79;100.00;99172.81;5047003;28;20057;-65
2024/01/18 06:52:51;;;;;;;37.45;22.90;;;;;;;0.76;100.00;99192.34;5047041;28;20056;-65
2024/01/18 06:55:19;;;;;;;37.58;21.73;;;;;;;0.57;100.00;99203.13;5045830;28;20310;-65
2024/01/18 06:57:48;;;;;;;35.38;21.65;;;;;;;0.57;100.00;99203.13;5047112;28;20558;-67
2024/01/18 07:00:24;;;;;;;38.75;20.73;;;;;;;0.55;100.00;99204.47;5047257;28;20712;-66
2024/01/18 07:02:52;;;;;;;35.65;22.13;;;;;;;0.47;100.00;99218.66;5046229;28;20072;-65
2024/01/18 07:05:20;;;;;;;35.30;22.15;;;;;;;0.65;100.00;99218.75;5049440;28;20534;-66
2024/01/18 07:07:47;;;;;;;34.13;22.02;;;;;;;0.83;100.00;99223.44;5045091;28;20056;-65
2024/01/18 07:10:15;;;;;;;34.33;20.77;;;;;;;0.82;100.00;99221.03;5013833;28;20042;-65
2024/01/18 07:12:42;;;;;;;34.33;21.50;;;;;;;0.86;100.00;99222.06;5005477;28;20080;-65
2024/01/18 07:15:10;;;;;;;38.60;20.65;;;;;;;0.67;100.00;99237.41;5026263;28;20061;-66
2024/01/18 07:17:37;;;;;;;41.58;22.48;;;;;;;0.70;100.00;99243.06;5032475;28;20061;-64
2024/01/18 07:20:05;;;;;;;35.40;22.63;;;;;;;0.80;100.00;99250.31;5033014;28;20754;-64
2024/01/18 07:22:32;;;;;;;35.30;23.00;;;;;;;0.77;100.00;99257.09;5030354;28;20056;-64
2024/01/18 07:25:00;;;;;;;36.90;22.73;;;;;;;0.82;100.00;99267.09;5010766;28;20701;-62
2024/01/18 07:27:27;;;;;;;39.38;22.95;;;;;;;0.72;100.00;99278.00;5012711;28;20050;-61
2024/01/18 07:29:54;;;;;;;38.17;23.25;;;;;;;0.82;100.00;99288.78;5010934;28;20061;-61
2024/01/18 07:32:21;;;;;;;38.55;22.73;;;;;;;0.57;100.00;99297.94;5010767;28;20073;-63
2024/01/18 07:34:49;;;;;;;39.67;23.77;;;;;;;0.49;100.00;99297.72;5022724;28;20083;-62
2024/01/18 07:37:36;;;;;;;43.53;25.52;;;;;;;0.79;100.00;99303.69;5031394;28;20062;-62
2024/01/18 07:40:04;;;;;;;41.95;25.48;;;;;;;0.52;100.00;99308.81;5011873;28;20061;-63
2024/01/18 07:42:32;;;;;;;38.92;24.80;;;;;;;0.74;100.00;99309.16;5011469;28;20056;-62
2024/01/18 07:44:59;;;;;;;42.47;24.65;;;;;;;0.61;100.00;99320.63;5023313;28;20064;-61
2024/01/18 07:47:26;;;;;;;45.17;26.00;;;;;;;0.76;100.00;99331.38;5030806;28;20479;-61
2024/01/18 07:49:54;;;;;;;42.25;25.85;;;;;;;0.78;100.00;99342.75;5030282;28;20168;-62
2024/01/18 07:52:25;;;;;;;43.53;27.42;;;;;;;0.82;100.00;99351.91;5027652;28;20037;-61
2024/01/18 07:54:54;;;;;;;45.67;26.55;;;;;;;0.77;100.00;99351.94;5020854;28;20061;-61
2024/01/18 07:57:21;;;;;;;42.55;25.85;;;;;;;0.93;100.00;99361.59;5030914;28;20057;-61
2024/01/18 07:59:48;;;;;;;40.75;25.40;;;;;;;0.67;100.00;99376.41;5025787;28;20088;-61
2024/01/18 08:02:16;;;;;;;44.67;26.77;;;;;;;0.69;100.00;99371.53;5028918;28;20053;-61
2024/01/18 08:04:43;;;;;;;41.90;27.52;;;;;;;0.59;100.00;99382.44;5028257;28;20053;-65
2024/01/18 08:07:11;;;;;;;43.60;27.42;;;;;;;0.63;100.00;99386.19;5027943;28;20059;-59
2024/01/18 08:09:38;;;;;;;41.20;26.77;;;;;;;0.55;100.00;99396.81;5022810;28;20054;-59
2024/01/18 08:12:06;;;;;;;45.92;26.42;;;;;;;0.72;100.00;99405.34;5029707;28;20041;-62
2024/01/18 08:14:41;;;;;;;40.80;26.65;;;;;;;0.90;100.00;99404.69;5028315;28;20061;-62
2024/01/18 08:17:09;;;;;;;48.42;27.42;;;;;;;0.81;100.00;99417.22;5021532;28;20060;-62
2024/01/18 08:19:37;;;;;;;43.60;26.40;;;;;;;0.89;100.00;99425.56;5023225;28;20049;-64
2024/01/18 08:22:04;;;;;;;43.92;25.58;;;;;;;0.92;99.87;99433.13;5025072;28;20045;-63
2024/01/18 08:24:33;;;;;;;45.92;26.75;;;;;;;0.96;99.25;99438.78;5022060;28;20053;-62
2024/01/18 08:27:00;;;;;;;42.05;25.27;;;;;;;0.98;99.43;99442.84;5024564;28;20053;-64
2024/01/18 08:29:28;;;;;;;41.25;25.58;;;;;;;0.96;99.50;99458.59;5033535;28;20060;-63
2024/01/18 08:31:55;;;;;;;47.50;26.75;;;;;;;0.68;99.54;99466.66;5016919;28;20540;-62
2024/01/18 08:34:22;;;;;;;44.75;27.40;;;;;;;0.73;100.00;99466.63;5039369;28;20076;-61
2024/01/18 08:36:51;;;;;;;49.42;27.90;;;;;;;0.48;100.00;99474.84;5046824;28;20063;-61
2024/01/18 08:39:19;;;;;;;45.78;27.05;;;;;;;0.64;100.00;99487.25;5047384;28;20049;-62
2024/01/18 08:41:47;;;;;;;45.13;26.33;;;;;;;0.65;100.00;99496.97;5026567;28;20053;-63
2024/01/18 08:44:14;;;;;;;42.35;27.27;;;;;;;0.73;100.00;99505.34;5040489;28;20041;-61
2024/01/18 08:46:42;;;;;;;51.30;27.73;;;;;;;0.39;100.00;99509.84;5035005;28;20057;-61
2024/01/18 08:49:09;;;;;;;47.17;26.50;;;;;;;0.58;100.00;99523.56;5047254;28;20053;-61
2024/01/18 08:51:36;;;;;;;49.28;28.00;;;;;;;1.13;100.00;99515.16;5027242;28;20052;-59
2024/01/18 08:54:06;;;;;;;50.05;27.80;;;;;;;0.83;100.00;99526.16;5031293;28;20045;-63
2024/01/18 08:56:35;;;;;;;45.72;26.65;;;;;;;0.84;100.00;99536.72;5028783;28;20058;-64
2024/01/18 08:59:02;;;;;;;47.85;27.23;;;;;;;0.64;100.00;99553.09;5036028;28;20056;-61
2024/01/18 09:01:29;;;;;;;53.83;28.55;;;;;;;0.72;100.00;99562.53;5035156;28;20072;-61
2024/01/18 09:03:57;;;;;;;49.90;27.50;;;;;;;0.77;100.00;99576.03;5027379;28;20080;-61
2024/01/18 09:06:25;;;;;;;48.90;27.67;;;;;;;0.76;100.00;99577.16;5033098;28;20053;-61
2024/01/18 09:08:52;;;;;;;47.40;26.75;;;;;;;0.50;100.00;99581.03;5026744;28;20136;-63
2024/01/18 09:11:19;;;;;;;48.88;27.65;;;;;;;0.52;100.00;99589.69;5027448;28;20137;-61
2024/01/18 09:13:47;;;;;;;49.10;29.25;;;;;;;0.69;100.00;99601.03;5027673;28;20491;-63
2024/01/18 09:16:16;;;;;;;51.38;29.63;;;;;;;0.96;100.00;99596.03;5035712;28;20050;-61
2024/01/18 09:18:59;;;;;;;45.33;27.63;;;;;;;0.90;98.72;99616.13;5024719;28;20053;-61
2024/01/18 09:21:44;;;;;;;43.88;27.42;;;;;;;1.21;98.51;99620.31;5025355;28;20049;-61
2024/01/18 09:24:13;;;;;;;49.70;28.55;;;;;;;0.85;97.69;99629.69;5025528;28;20041;-62
2024/01/18 09:26:41;;;;;;;52.28;29.38;;;;;;;0.93;97.80;99640.78;5028286;28;20493;-61
2024/01/18 09:29:08;;;;;;;47.95;28.00;;;;;;;1.11;97.96;99640.19;5025384;28;20057;-62
2024/01/18 09:31:35;;;;;;;54.55;29.80;;;;;;;1.23;97.18;99642.56;5028388;28;20068;-62
2024/01/18 09:34:10;;;;;;;50.95;29.50;;;;;;;1.31;95.33;99650.09;5025532;28;20101;-60
2024/01/18 09:36:37;;;;;;;45.55;28.52;;;;;;;1.10;94.67;99662.94;5026188;28;20057;-60
2024/01/18 09:39:08;;;;;;;54.03;28.27;;;;;;;0.89;95.82;99674.16;5022522;28;20620;-62
2024/01/18 09:41:36;;;;;;;55.95;29.63;;;;;;;0.97;96.96;99684.41;5022392;28;20052;-62
2024/01/18 09:44:04;;;;;;;49.63;29.25;;;;;;;0.76;96.61;99686.38;5024542;28;20053;-63
2024/01/18 09:46:31;;;;;;;56.10;30.15;;;;;;;0.99;97.28;99687.66;5027195;28;20049;-62
2024/01/18 09:48:59;;;;;;;47.30;29.27;;;;;;;0.89;96.71;99696.63;5026533;28;20057;-63
2024/01/18 09:51:31;;;;;;;51.30;29.83;;;;;;;1.10;96.35;99702.78;5028143;28;20057;-63
2024/01/18 09:54:00;;;;;;;48.40;29.88;;;;;;;1.03;95.78;99704.97;5025593;28;20056;-62
2024/01/18 09:56:43;;;;;;;47.45;29.05;;;;;;;0.85;95.78;99713.72;5008932;28;20064;-63
2024/01/18 09:59:16;;;;;;;48.22;27.55;;;;;;;0.89;95.52;99722.94;5026851;28;20492;-63
2024/01/18 10:01:44;;;;;;;52.35;30.08;;;;;;;0.70;97.51;99733.53;5020633;28;20054;-61
2024/01/18 10:04:12;;;;;;;48.65;28.67;;;;;;;0.79;97.59;99742.72;5025605;28;20701;-60
2024/01/18 10:06:40;;;;;;;49.13;29.52;;;;;;;1.02;97.56;99746.75;5026774;28;20050;-62
2024/01/18 10:09:14;;;;;;;51.50;28.33;;;;;;;1.01;96.56;99775.75;5021225;28;20053;-62
2024/01/18 10:11:45;;;;;;;51.40;28.60;;;;;;;0.85;97.00;99785.03;5025108;28;20048;-61
2024/01/18 10:14:13;;;;;;;54.78;28.92;;;;;;;1.15;96.48;99786.88;5025479;28;20468;-61
2024/01/18 10:16:43;;;;;;;48.35;28.90;;;;;;;0.93;96.31;99795.28;5020220;28;20059;-63
2024/01/18 10:19:14;;;;;;;52.42;28.70;;;;;;;0.83;96.58;99803.44;5027734;28;20476;-62
2024/01/18 10:21:44;;;;;;;46.05;30.08;;;;;;;1.00;96.58;99820.22;5023793;28;20049;-61
2024/01/18 10:24:19;;;;;;;53.20;31.13;;;;;;;0.95;97.49;99822.13;5027753;28;20432;-62
2024/01/18 10:26:47;;;;;;;49.78;30.85;;;;;;;0.98;97.47;99848.69;5026398;28;20061;-62
2024/01/18 10:29:26;;;;;;;50.85;30.73;;;;;;;0.91;96.60;99840.84;5039409;28;20060;-62
2024/01/18 10:32:06;;;;;;;49.97;30.58;;;;;;;1.03;97.20;99849.50;5029032;28;20062;-61
2024/01/18 10:34:38;;;;;;;49.63;29.17;;;;;;;1.43;96.93;99845.91;5029309;28;20045;-62
2024/01/18 10:37:43;;;;;;;45.30;27.70;;;;;;;1.06;94.52;99861.72;5021157;28;20646;-64
2024/01/18 10:40:10;;;;;;;45.92;28.60;;;;;;;1.36;94.98;99864.38;5024664;28;20057;-64
2024/01/18 10:42:38;;;;;;;45.53;27.98;;;;;;;1.41;94.47;99866.28;5028363;28;20084;-64
2024/01/18 10:45:06;;;;;;;52.00;29.77;;;;;;;1.43;94.24;99867.63;5023391;28;20068;-64
2024/01/18 10:47:42;;;;;;;48.92;30.52;;;;;;;1.39;94.46;99866.56;5024748;28;20057;-65
2024/01/18 10:50:10;;;;;;;48.05;26.92;;;;;;;1.38;93.26;99880.41;5023743;28;20057;-65
2024/01/18 10:52:39;;;;;;;50.58;28.13;;;;;;;1.39;91.71;99872.00;5025086;28;20104;-65
2024/01/18 10:55:08;;;;;;;46.65;27.50;;;;;;;1.25;92.40;99876.34;5034245;28;20045;-64
2024/01/18 10:57:36;;;;;;;46.92;28.33;;;;;;;1.43;92.64;99883.91;5026401;28;20467;-65
2024/01/18 11:00:06;;;;;;;47.95;27.75;;;;;;;1.57;93.16;99895.81;5028561;28;20129;-64
2024/01/18 11:03:07;;;;;;;48.00;28.33;;;;;;;1.51;93.39;99896.94;5028066;28;20053;-64
2024/01/18 11:05:35;;;;;;;43.40;28.00;;;;;;;1.76;92.23;99905.00;5023012;28;20061;-68
2024/01/18 11:08:13;;;;;;;45.95;27.55;;;;;;;1.74;91.24;99903.66;5011239;28;20057;-65
2024/01/18 11:10:41;;;;;;;53.33;28.60;;;;;;;1.73;91.40;99910.97;5006804;28;20057;-64
2024/01/18 11:13:09;;;;;;;47.47;27.13;;;;;;;2.00;90.61;99921.50;5020960;28;20053;-64
2024/01/18 11:15:37;;;;;;;46.05;26.48;;;;;;;2.05;89.72;99916.06;5024308;28;20073;-66
2024/01/18 11:18:12;;;;;;;41.13;25.27;;;;;;;2.21;88.74;99929.28;5023378;28;20045;-66
2024/01/18 11:21:04;;;;;;;39.40;24.27;;;;;;;2.40;87.07;99928.66;5024291;28;20061;-65
2024/01/18 11:23:39;;;;;;;45.58;25.80;;;;;;;2.57;86.33;99932.66;5022771;28;20064;-65
2024/01/18 11:26:09;;;;;;;41.45;25.38;;;;;;;2.48;85.26;99941.66;5039611;28;20057;-65
2024/01/18 11:28:36;;;;;;;39.15;23.08;;;;;;;2.25;85.48;99951.28;5017690;28;20068;-65
2024/01/18 11:31:04;;;;;;;45.60;24.25;;;;;;;2.30;85.79;99938.47;5020412;28;20058;-65